Airfield :
LOGIN :

Register | Disclaimer

   EN    FR    IT 

 










Legend :    VFR   Marginal VFR   IFR   Intensive IFR   Very Intensive IFR
Visi :
Ceiling :
>= 8 km
>= 3000ft
5 to 8 km
1000 to 3000 ft
1500m to 5 km
500 to 1000 ft
800 to 1500m
200 to 500 ft
< 800m
< 200 ft
Symbols :   Thunderstorms  Fog  Heavy snow  Heavy precipitations  Wind > 20 kt
SIGMETs :     Misc.  Thunderstorms  Icing  Turbulence  Mountain Waves  Volcanic Ashes







- Airport Elevation : 14 ft
- IATA code : BRE


EDDW - Bremen Neuenland

CURRENT METAR :
  • 181550Z 30015KT 9999 -RADZ FEW010 BKN013 BKN020 03/02 Q0994 R88/290095 TEMPO 31020G30KT BKN015

EXPIRED METARs :
  • 181520Z 31018KT 9999 -RADZ SCT010 BKN013 03/02 Q0993 R88/290095 TEMPO 31020G30KT BKN015
  • 181450Z 31023KT 9999 -RADZ SCT008 BKN011 03/01 Q0992 R88/290095 TEMPO BKN015
  • 181420Z 31027G39KT 9999 -RA FEW009 BKN011 02/01 Q0989 R88/290095 TEMPO BKN020
  • 181350Z 31029G40KT 9999 -RA BKN009 BKN014 02/01 Q0987 R88/290095 TEMPO BKN020
  • 181320Z 31034G46KT 9999 -RA FEW007 BKN011 03/01 Q0983 R88/290095 TEMPO BKN020

TAF TAF EDDW
Valid from the 18 at 12:00 until the 19 at 12:00 UTC


181100Z 1812/1912 26020G35KT 9999 SCT012 BKN030
TEMPO 1812/1817 28030G40KT BKN014
PROB30
TEMPO 1812/1817 30030G50KT 4500 SHRA BKN008CB
BECMG 1816/1818 26015KT
TEMPO 1817/1912 BKN012
PROB30
TEMPO 1817/1912 BKN008
BECMG 1818/1821 25009KT
No reported NOTAMs for that airfield.
1 SIGMET reported for the Bremen FIR (EDWW) :
 
Severe turbulence
EDWW SIGMET 8 VALID 181400/181700 EDZH
EDWW BREMEN FIR SEV TURB FCST WI N5320 E00858 - N5217 E01451 - N5127 E01459 - N5107 E01017 - N5121 E00842 - N5146 E00814 - N5217 E00739 - N5320 E00858 SFC/FL060 MOV E 30KT NC=



MET'MAP, your aeronautical weather chart ! - Copyright ORBIFLY December 2007 - Disclaimer

ORBIFLY MET'MAP TEAM :

Programming & Development : Alexandra Zaïnal
Concept & Development : Baudouin d'Aumeries
Co-Development & Prog : Marc-Olivier Méhu
Technical & hardware support : Manuel Goepfert

Contact : metmap@orbifly.com




SOURCES & CREDITS :

   NOAA